createdAt,value
2017-09-05T00:00:38.649Z,975.46
2017-09-05T00:01:38.913Z,975.50
2017-09-05T00:02:38.952Z,975.53
2017-09-05T00:03:38.871Z,975.49
2017-09-05T00:04:39.437Z,975.45
2017-09-05T00:05:39.176Z,975.52
2017-09-05T00:06:39.021Z,975.55
2017-09-05T00:07:39.145Z,975.51
2017-09-05T00:08:39.508Z,975.52
2017-09-05T00:09:39.378Z,975.48
2017-09-05T00:10:39.302Z,975.46
2017-09-05T00:11:39.393Z,975.49
2017-09-05T00:12:39.524Z,975.47
2017-09-05T00:13:39.325Z,975.45
2017-09-05T00:14:39.485Z,975.51
2017-09-05T00:15:39.558Z,975.49
2017-09-05T00:16:39.582Z,975.46
2017-09-05T00:17:39.645Z,975.51
2017-09-05T00:18:39.539Z,975.49
2017-09-05T00:19:39.730Z,975.50
2017-09-05T00:20:39.764Z,975.48
2017-09-05T00:21:39.577Z,975.51
2017-09-05T00:22:39.867Z,975.49
2017-09-05T00:23:39.961Z,975.45
2017-09-05T00:24:40.002Z,975.45
2017-09-05T00:25:40.213Z,975.47
2017-09-05T00:26:39.941Z,975.50
2017-09-05T00:27:40.192Z,975.51
2017-09-05T00:28:40.161Z,975.54
2017-09-05T00:29:40.364Z,975.48
2017-09-05T00:30:40.331Z,975.47
2017-09-05T00:31:40.242Z,975.49
2017-09-05T00:32:40.252Z,975.49
2017-09-05T00:33:40.349Z,975.45
2017-09-05T00:34:40.371Z,975.47
2017-09-05T00:35:40.640Z,975.43
2017-09-05T00:36:40.573Z,975.43
2017-09-05T00:37:40.865Z,975.40
2017-09-05T00:38:41.119Z,975.40
2017-09-05T00:39:40.749Z,975.47
2017-09-05T00:40:40.989Z,975.47
2017-09-05T00:41:40.860Z,975.49
2017-09-05T00:42:40.857Z,975.48
2017-09-05T00:43:40.969Z,975.49
2017-09-05T00:44:41.352Z,975.45
2017-09-05T00:45:40.792Z,975.50
2017-09-05T00:46:41.289Z,975.47
2017-09-05T00:47:40.877Z,975.48
2017-09-05T00:48:41.138Z,975.49
2017-09-05T00:49:41.616Z,975.50
2017-09-05T00:50:41.135Z,975.47
2017-09-05T00:51:41.465Z,975.42
2017-09-05T00:52:41.609Z,975.45
2017-09-05T00:53:41.467Z,975.42
2017-09-05T00:54:41.266Z,975.47
2017-09-05T00:55:41.736Z,975.43
2017-09-05T00:56:41.798Z,975.43
2017-09-05T00:57:41.585Z,975.43
2017-09-05T00:58:41.536Z,975.41
2017-09-05T00:59:41.918Z,975.40
2017-09-05T01:00:41.613Z,975.39
2017-09-05T01:01:42.128Z,975.42
2017-09-05T01:02:41.608Z,975.46
2017-09-05T01:03:42.083Z,975.43
2017-09-05T01:04:41.812Z,975.47
2017-09-05T01:05:41.790Z,975.42
2017-09-05T01:06:41.883Z,975.45
2017-09-05T01:07:42.308Z,975.41
2017-09-05T01:08:41.979Z,975.42
2017-09-05T01:09:42.121Z,975.41
2017-09-05T01:10:42.151Z,975.44
2017-09-05T01:11:42.121Z,975.41
2017-09-05T01:12:42.877Z,975.40
2017-09-05T01:13:42.534Z,975.40
2017-09-05T01:14:42.385Z,975.44
2017-09-05T01:15:42.275Z,975.43
2017-09-05T01:16:42.456Z,975.42
2017-09-05T01:17:42.786Z,975.43
2017-09-05T01:18:42.570Z,975.46
2017-09-05T01:19:42.770Z,975.46
2017-09-05T01:20:42.746Z,975.48
2017-09-05T01:21:42.639Z,975.47
2017-09-05T01:22:42.788Z,975.43
2017-09-05T01:23:43.084Z,975.49
2017-09-05T01:24:42.841Z,975.49
2017-09-05T01:25:42.885Z,975.48
2017-09-05T01:26:42.809Z,975.49
2017-09-05T01:27:43.184Z,975.48
2017-09-05T01:28:43.077Z,975.49
2017-09-05T01:29:43.375Z,975.48
2017-09-05T01:30:43.281Z,975.44
2017-09-05T01:31:43.219Z,975.39
2017-09-05T01:32:43.569Z,975.41
2017-09-05T01:33:43.653Z,975.38
2017-09-05T01:34:43.666Z,975.35
2017-09-05T01:35:43.473Z,975.32
2017-09-05T01:36:43.382Z,975.33
2017-09-05T01:37:43.344Z,975.33
2017-09-05T01:38:43.727Z,975.33
2017-09-05T01:39:43.792Z,975.36
2017-09-05T01:40:43.667Z,975.37
2017-09-05T01:41:43.816Z,975.37
2017-09-05T01:42:44.268Z,975.34
2017-09-05T01:43:44.243Z,975.38
2017-09-05T01:44:43.833Z,975.41
2017-09-05T01:45:43.777Z,975.39
2017-09-05T01:46:44.043Z,975.35
2017-09-05T01:47:44.309Z,975.35
2017-09-05T01:48:44.279Z,975.39
2017-09-05T01:49:44.016Z,975.35
2017-09-05T01:50:44.029Z,975.38
2017-09-05T01:51:44.227Z,975.36
2017-09-05T01:52:44.329Z,975.37
2017-09-05T01:53:44.625Z,975.38
2017-09-05T01:54:44.173Z,975.38
2017-09-05T01:55:44.593Z,975.36
2017-09-05T01:56:44.400Z,975.34
2017-09-05T01:57:44.312Z,975.28
2017-09-05T01:58:44.923Z,975.28
2017-09-05T01:59:44.559Z,975.26
2017-09-05T02:00:44.566Z,975.24
2017-09-05T02:01:44.869Z,975.25
2017-09-05T02:02:44.944Z,975.21
2017-09-05T02:03:44.752Z,975.17
2017-09-05T02:04:45.106Z,975.14
2017-09-05T02:05:44.959Z,975.11
2017-09-05T02:06:44.765Z,975.14
2017-09-05T02:07:44.993Z,975.14
2017-09-05T02:08:45.390Z,975.18
2017-09-05T02:09:45.219Z,975.15
2017-09-05T02:10:44.947Z,975.12
2017-09-05T02:11:45.355Z,975.14
2017-09-05T02:12:45.245Z,975.16
2017-09-05T02:13:45.424Z,975.15
2017-09-05T02:14:45.414Z,975.19
2017-09-05T02:15:45.440Z,975.15
2017-09-05T02:16:45.316Z,975.12
2017-09-05T02:17:46.068Z,975.13
2017-09-05T02:18:45.374Z,975.16
2017-09-05T02:19:45.787Z,975.10
2017-09-05T02:20:45.465Z,975.11
2017-09-05T02:21:46.007Z,975.09
2017-09-05T02:22:45.672Z,975.12
2017-09-05T02:23:45.954Z,975.11
2017-09-05T02:24:46.072Z,975.13
2017-09-05T02:25:45.864Z,975.15
2017-09-05T02:26:46.180Z,975.16
2017-09-05T02:27:46.071Z,975.14
2017-09-05T02:28:46.027Z,975.11
2017-09-05T02:29:46.306Z,975.16
2017-09-05T02:30:45.943Z,975.11
2017-09-05T02:31:46.203Z,975.11
2017-09-05T02:32:46.266Z,975.12
2017-09-05T02:33:46.103Z,975.08
2017-09-05T02:34:46.491Z,975.05
2017-09-05T02:35:46.366Z,975.08
2017-09-05T02:36:46.288Z,975.06
2017-09-05T02:37:46.606Z,975.04
2017-09-05T02:38:46.341Z,975.08
2017-09-05T02:39:46.919Z,975.04
2017-09-05T02:40:46.682Z,975.07
2017-09-05T02:41:46.530Z,975.06
2017-09-05T02:42:46.698Z,975.08
2017-09-05T02:43:46.654Z,975.07
2017-09-05T02:44:47.172Z,975.13
2017-09-05T02:45:46.742Z,975.06
2017-09-05T02:46:46.754Z,975.02
2017-09-05T02:47:46.915Z,975.06
2017-09-05T02:48:46.919Z,975.02
2017-09-05T02:49:47.127Z,975.01
2017-09-05T02:50:47.271Z,974.97
2017-09-05T02:51:47.251Z,974.99
2017-09-05T02:52:47.260Z,974.97
2017-09-05T02:53:47.097Z,974.98
2017-09-05T02:54:47.166Z,975.02
2017-09-05T02:55:47.861Z,975.00
2017-09-05T02:56:47.476Z,974.94
2017-09-05T02:57:47.225Z,975.00
2017-09-05T02:58:47.632Z,975.01
2017-09-05T02:59:47.601Z,974.99
2017-09-05T03:00:47.833Z,975.00
2017-09-05T03:01:47.667Z,975.02
2017-09-05T03:02:47.770Z,975.00
2017-09-05T03:03:48.048Z,974.99
2017-09-05T03:04:47.666Z,975.01
2017-09-05T03:05:47.922Z,975.04
2017-09-05T03:06:47.855Z,975.00
2017-09-05T03:07:47.811Z,975.05
2017-09-05T03:08:47.855Z,974.98
2017-09-05T03:09:47.859Z,974.99
2017-09-05T03:10:48.480Z,974.99
2017-09-05T03:11:48.262Z,974.96
2017-09-05T03:12:48.012Z,974.98
2017-09-05T03:13:48.556Z,974.94
2017-09-05T03:14:48.329Z,974.95
2017-09-05T03:15:48.275Z,974.99
2017-09-05T03:16:48.512Z,974.98
2017-09-05T03:17:48.241Z,974.99
2017-09-05T03:18:48.472Z,974.98
2017-09-05T03:19:48.429Z,974.97
2017-09-05T03:20:48.454Z,974.91
2017-09-05T03:21:48.862Z,974.89
2017-09-05T03:22:48.556Z,974.92
2017-09-05T03:23:48.869Z,974.88
2017-09-05T03:24:48.759Z,974.87
2017-09-05T03:25:48.647Z,974.90
2017-09-05T03:26:48.831Z,974.90
2017-09-05T03:27:49.147Z,974.89
2017-09-05T03:28:49.202Z,974.87
2017-09-05T03:29:49.084Z,974.87
2017-09-05T03:30:49.102Z,974.85
2017-09-05T03:31:49.107Z,974.85
2017-09-05T03:32:50.271Z,974.88
2017-09-05T03:33:49.431Z,974.85
2017-09-05T03:34:49.828Z,974.87
2017-09-05T03:35:49.397Z,974.88
2017-09-05T03:36:49.399Z,974.85
2017-09-05T03:37:49.747Z,974.85
2017-09-05T03:38:49.343Z,974.88
2017-09-05T03:39:49.405Z,974.86
2017-09-05T03:40:49.616Z,974.84
2017-09-05T03:41:49.625Z,974.79
2017-09-05T03:42:49.839Z,974.80
2017-09-05T03:43:49.667Z,974.85
2017-09-05T03:44:49.794Z,974.86
2017-09-05T03:45:49.681Z,974.83
2017-09-05T03:46:49.783Z,974.85
2017-09-05T03:47:50.010Z,974.88
2017-09-05T03:48:51.001Z,974.86
2017-09-05T03:49:50.042Z,974.84
2017-09-05T03:50:49.979Z,974.84
2017-09-05T03:51:49.896Z,974.89
2017-09-05T03:52:50.417Z,974.83
2017-09-05T03:53:50.260Z,974.88
2017-09-05T03:54:50.157Z,974.87
2017-09-05T03:55:50.450Z,974.86
2017-09-05T03:56:50.358Z,974.88
2017-09-05T03:57:50.259Z,974.94
2017-09-05T03:58:50.822Z,974.96
2017-09-05T03:59:50.369Z,974.92
2017-09-05T04:00:50.497Z,974.96
2017-09-05T04:01:50.792Z,974.99
2017-09-05T04:02:50.415Z,974.99
2017-09-05T04:03:50.697Z,974.96
2017-09-05T04:04:50.542Z,974.96
2017-09-05T04:05:50.774Z,974.99
2017-09-05T04:06:50.642Z,974.99
2017-09-05T04:07:51.188Z,975.01
2017-09-05T04:08:51.205Z,974.96
2017-09-05T04:09:50.822Z,974.97
2017-09-05T04:10:50.818Z,975.00
2017-09-05T04:11:50.942Z,974.94
2017-09-05T04:12:51.402Z,974.93
2017-09-05T04:13:51.335Z,974.91
2017-09-05T04:14:51.189Z,974.91
2017-09-05T04:15:51.241Z,974.93
2017-09-05T04:16:51.205Z,974.95
2017-09-05T04:17:51.193Z,974.91
2017-09-05T04:18:51.796Z,974.92
2017-09-05T04:19:51.291Z,974.94
2017-09-05T04:20:51.746Z,974.94
2017-09-05T04:21:51.993Z,974.97
2017-09-05T04:22:51.579Z,974.99
2017-09-05T04:23:52.274Z,975.00
2017-09-05T04:24:51.600Z,974.99
2017-09-05T04:25:51.811Z,975.02
2017-09-05T04:26:51.937Z,975.04
2017-09-05T04:27:51.777Z,975.10
2017-09-05T04:28:51.964Z,975.09
2017-09-05T04:29:52.145Z,975.12
2017-09-05T04:30:51.952Z,975.15
2017-09-05T04:31:52.292Z,975.14
2017-09-05T04:32:52.240Z,975.14
2017-09-05T04:33:52.015Z,975.11
2017-09-05T04:34:52.218Z,975.09
2017-09-05T04:35:52.439Z,975.10
2017-09-05T04:36:52.796Z,975.07
2017-09-05T04:37:52.243Z,975.11
2017-09-05T04:38:52.208Z,975.11
2017-09-05T04:39:52.645Z,975.10
2017-09-05T04:40:52.552Z,975.09
2017-09-05T04:41:52.787Z,975.11
2017-09-05T04:42:52.587Z,975.11
2017-09-05T04:43:52.454Z,975.11
2017-09-05T04:44:53.025Z,975.16
2017-09-05T04:45:52.642Z,975.13
2017-09-05T04:46:52.712Z,975.15
2017-09-05T04:47:53.217Z,975.17
2017-09-05T04:48:52.980Z,975.10
2017-09-05T04:49:53.283Z,975.13
2017-09-05T04:50:52.978Z,975.15
2017-09-05T04:51:52.902Z,975.12
2017-09-05T04:52:53.086Z,975.11
2017-09-05T04:53:53.389Z,975.15
2017-09-05T04:54:53.332Z,975.16
2017-09-05T04:55:53.032Z,975.17
2017-09-05T04:56:53.159Z,975.17
2017-09-05T04:57:53.131Z,975.16
2017-09-05T04:58:53.695Z,975.21
2017-09-05T04:59:53.681Z,975.24
2017-09-05T05:00:53.648Z,975.24
2017-09-05T05:01:53.723Z,975.25
2017-09-05T05:02:53.535Z,975.22
2017-09-05T05:03:53.446Z,975.27
2017-09-05T05:04:53.524Z,975.30
2017-09-05T05:05:54.175Z,975.28
2017-09-05T05:06:53.974Z,975.30
2017-09-05T05:07:53.822Z,975.34
2017-09-05T05:08:53.744Z,975.28
2017-09-05T05:09:53.761Z,975.31
2017-09-05T05:10:54.335Z,975.32
2017-09-05T05:11:53.865Z,975.31
2017-09-05T05:12:54.002Z,975.30
2017-09-05T05:13:53.953Z,975.28
2017-09-05T05:14:54.181Z,975.26
2017-09-05T05:15:54.629Z,975.29
2017-09-05T05:16:54.144Z,975.30
2017-09-05T05:17:54.538Z,975.30
2017-09-05T05:18:54.370Z,975.29
2017-09-05T05:19:54.626Z,975.32
2017-09-05T05:20:54.953Z,975.28
2017-09-05T05:21:54.523Z,975.29
2017-09-05T05:22:54.744Z,975.30
2017-09-05T05:23:54.697Z,975.28
2017-09-05T05:24:54.617Z,975.24
2017-09-05T05:25:54.628Z,975.28
2017-09-05T05:26:55.157Z,975.24
2017-09-05T05:27:54.661Z,975.27
2017-09-05T05:28:54.972Z,975.24
2017-09-05T05:29:55.194Z,975.23
2017-09-05T05:30:55.384Z,975.26
2017-09-05T05:31:55.397Z,975.25
2017-09-05T05:32:55.449Z,975.29
2017-09-05T05:33:55.246Z,975.30
2017-09-05T05:34:55.091Z,975.32
2017-09-05T05:35:55.142Z,975.27
2017-09-05T05:36:55.244Z,975.36
2017-09-05T05:37:55.790Z,975.33
2017-09-05T05:38:55.501Z,975.35
2017-09-05T05:39:55.573Z,975.36
2017-09-05T05:40:55.466Z,975.34
2017-09-05T05:41:55.361Z,975.37
2017-09-05T05:42:55.752Z,975.35
2017-09-05T05:43:55.671Z,975.37
2017-09-05T05:44:55.829Z,975.35
2017-09-05T05:45:55.758Z,975.40
2017-09-05T05:46:55.752Z,975.37
2017-09-05T05:47:56.222Z,975.37
2017-09-05T05:48:55.950Z,975.35
2017-09-05T05:49:55.854Z,975.36
2017-09-05T05:50:55.773Z,975.38
2017-09-05T05:51:56.100Z,975.35
2017-09-05T05:52:56.372Z,975.36
2017-09-05T05:53:56.312Z,975.32
2017-09-05T05:54:56.023Z,975.32
2017-09-05T05:55:56.087Z,975.34
2017-09-05T05:56:56.113Z,975.34
2017-09-05T05:57:56.287Z,975.31
2017-09-05T05:58:56.378Z,975.28
2017-09-05T05:59:56.277Z,975.34
2017-09-05T06:00:56.341Z,975.30
2017-09-05T06:01:56.443Z,975.29
2017-09-05T06:02:56.879Z,975.26
2017-09-05T06:03:56.446Z,975.26
2017-09-05T06:04:56.781Z,975.25
2017-09-05T06:05:56.939Z,975.26
2017-09-05T06:06:56.704Z,975.30
2017-09-05T06:07:56.637Z,975.32
2017-09-05T06:08:57.155Z,975.31
2017-09-05T06:09:56.767Z,975.32
2017-09-05T06:10:56.795Z,975.31
2017-09-05T06:11:56.897Z,975.34
2017-09-05T06:12:56.821Z,975.36
2017-09-05T06:13:57.806Z,975.39
2017-09-05T06:14:57.128Z,975.36
2017-09-05T06:15:57.371Z,975.37
2017-09-05T06:16:57.121Z,975.40
2017-09-05T06:17:57.485Z,975.35
2017-09-05T06:18:57.380Z,975.35
2017-09-05T06:19:57.364Z,975.36
2017-09-05T06:20:57.918Z,975.35
2017-09-05T06:21:57.427Z,975.39
2017-09-05T06:22:57.440Z,975.36
2017-09-05T06:23:57.443Z,975.34
2017-09-05T06:24:57.959Z,975.35
2017-09-05T06:25:57.573Z,975.34
2017-09-05T06:26:57.568Z,975.36
2017-09-05T06:27:57.685Z,975.35
2017-09-05T06:28:57.848Z,975.36
2017-09-05T06:29:58.241Z,975.39
2017-09-05T06:30:57.869Z,975.32
2017-09-05T06:31:57.825Z,975.33
2017-09-05T06:32:58.047Z,975.34
2017-09-05T06:33:57.963Z,975.34
2017-09-05T06:34:58.458Z,975.34
2017-09-05T06:35:58.369Z,975.34
2017-09-05T06:36:58.277Z,975.36
2017-09-05T06:37:58.263Z,975.38
2017-09-05T06:38:58.548Z,975.37
2017-09-05T06:39:58.693Z,975.40
2017-09-05T06:40:58.427Z,975.39
2017-09-05T06:41:58.521Z,975.39
2017-09-05T06:42:58.522Z,975.39
2017-09-05T06:43:58.549Z,975.40
2017-09-05T06:44:58.482Z,975.39
2017-09-05T06:45:58.907Z,975.42
2017-09-05T06:46:58.691Z,975.40
2017-09-05T06:47:58.621Z,975.43
2017-09-05T06:48:58.980Z,975.38
2017-09-05T06:49:58.876Z,975.41
2017-09-05T06:50:58.988Z,975.46
2017-09-05T06:51:58.706Z,975.44
2017-09-05T06:52:58.833Z,975.48
2017-09-05T06:53:58.868Z,975.44
2017-09-05T06:54:59.180Z,975.43
2017-09-05T06:55:59.361Z,975.44
2017-09-05T06:56:59.146Z,975.45
2017-09-05T06:57:59.077Z,975.51
2017-09-05T06:58:59.437Z,975.47
2017-09-05T06:59:59.184Z,975.47
2017-09-05T07:00:59.943Z,975.46
2017-09-05T07:01:59.393Z,975.50
2017-09-05T07:02:59.357Z,975.49
2017-09-05T07:03:59.619Z,975.53
2017-09-05T07:04:59.723Z,975.48
2017-09-05T07:05:59.521Z,975.50
2017-09-05T07:06:59.666Z,975.51
2017-09-05T07:08:00.146Z,975.48
2017-09-05T07:08:59.988Z,975.48
2017-09-05T07:09:59.672Z,975.52
2017-09-05T07:11:00.076Z,975.49
2017-09-05T07:12:00.271Z,975.46
2017-09-05T07:13:00.018Z,975.48
2017-09-05T07:14:00.107Z,975.46
2017-09-05T07:14:59.978Z,975.50
2017-09-05T07:16:00.372Z,975.48
2017-09-05T07:17:00.368Z,975.55
2017-09-05T07:18:00.293Z,975.53
2017-09-05T07:19:00.264Z,975.52
2017-09-05T07:20:00.411Z,975.58
2017-09-05T07:21:00.225Z,975.64
2017-09-05T07:22:00.616Z,975.63
2017-09-05T07:23:00.318Z,975.65
2017-09-05T07:24:00.560Z,975.60
2017-09-05T07:25:00.663Z,975.64
2017-09-05T07:26:00.621Z,975.61
2017-09-05T07:27:00.870Z,975.64
2017-09-05T07:28:01.125Z,975.60
2017-09-05T07:29:00.708Z,975.60
2017-09-05T07:30:00.913Z,975.60
2017-09-05T07:31:01.210Z,975.60
2017-09-05T07:32:01.398Z,975.61
2017-09-05T07:33:00.856Z,975.57
2017-09-05T07:34:00.871Z,975.57
2017-09-05T07:35:00.897Z,975.57
2017-09-05T07:36:01.242Z,975.56
2017-09-05T07:37:01.323Z,975.54
2017-09-05T07:38:01.597Z,975.59
2017-09-05T07:39:01.354Z,975.58
2017-09-05T07:40:01.155Z,975.57
2017-09-05T07:41:01.684Z,975.60
2017-09-05T07:42:01.730Z,975.59
2017-09-05T07:43:01.925Z,975.60
2017-09-05T07:44:01.824Z,975.60
2017-09-05T07:45:01.421Z,975.60
2017-09-05T07:46:01.808Z,975.58
2017-09-05T07:47:01.714Z,975.61
2017-09-05T07:48:01.704Z,975.66
2017-09-05T07:49:01.904Z,975.63
2017-09-05T07:50:01.887Z,975.66
2017-09-05T07:51:02.148Z,975.67
2017-09-05T07:52:02.227Z,975.67
2017-09-05T07:53:02.066Z,975.64
2017-09-05T07:54:01.959Z,975.64
2017-09-05T07:55:02.064Z,975.68
2017-09-05T07:56:02.128Z,975.69
2017-09-05T07:57:02.291Z,975.67
2017-09-05T07:58:02.730Z,975.63
2017-09-05T07:59:02.501Z,975.66
2017-09-05T08:00:02.240Z,975.66
2017-09-05T08:01:02.404Z,975.65
2017-09-05T08:02:02.354Z,975.65
2017-09-05T08:03:02.429Z,975.66
2017-09-05T08:04:02.799Z,975.62
2017-09-05T08:05:02.547Z,975.62
2017-09-05T08:06:02.789Z,975.67
2017-09-05T08:07:02.883Z,975.64
2017-09-05T08:08:02.807Z,975.62
2017-09-05T08:09:03.225Z,975.64
2017-09-05T08:10:02.951Z,975.60
2017-09-05T08:11:03.446Z,975.58
2017-09-05T08:12:03.038Z,975.61
2017-09-05T08:13:02.957Z,975.64
2017-09-05T08:14:03.250Z,975.62
2017-09-05T08:15:03.091Z,975.58
2017-09-05T08:16:03.089Z,975.59
2017-09-05T08:17:03.090Z,975.60
2017-09-05T08:18:03.293Z,975.64
2017-09-05T08:19:03.681Z,975.60
2017-09-05T08:20:03.624Z,975.57
2017-09-05T08:21:03.526Z,975.56
2017-09-05T08:22:03.566Z,975.61
2017-09-05T08:23:03.477Z,975.59
2017-09-05T08:24:03.818Z,975.66
2017-09-05T08:25:03.819Z,975.64
2017-09-05T08:26:05.313Z,975.68
2017-09-05T08:27:03.742Z,975.64
2017-09-05T08:28:03.995Z,975.67
2017-09-05T08:29:04.162Z,975.66
2017-09-05T08:30:03.851Z,975.67
2017-09-05T08:31:03.886Z,975.68
2017-09-05T08:32:04.136Z,975.71
2017-09-05T08:33:04.225Z,975.69
2017-09-05T08:34:04.083Z,975.71
2017-09-05T08:35:04.319Z,975.73
2017-09-05T08:36:04.033Z,975.77
2017-09-05T08:37:04.245Z,975.79
2017-09-05T08:38:05.735Z,975.75
2017-09-05T08:39:04.899Z,975.74
2017-09-05T08:40:04.748Z,975.72
2017-09-05T08:41:04.673Z,975.78
2017-09-05T08:42:04.569Z,975.75
2017-09-05T08:43:04.551Z,975.76
2017-09-05T08:44:04.492Z,975.74
2017-09-05T08:45:04.607Z,975.71
2017-09-05T08:46:04.868Z,975.70
2017-09-05T08:47:04.833Z,975.74
2017-09-05T08:48:04.598Z,975.70
2017-09-05T08:49:05.009Z,975.72
2017-09-05T08:50:05.094Z,975.68
2017-09-05T08:51:05.166Z,975.70
2017-09-05T08:52:04.993Z,975.70
2017-09-05T08:53:05.026Z,975.70
2017-09-05T08:54:05.131Z,975.70
2017-09-05T08:55:05.303Z,975.69
2017-09-05T08:56:05.272Z,975.70
2017-09-05T08:57:05.305Z,975.70
2017-09-05T08:58:05.540Z,975.72
2017-09-05T08:59:05.808Z,975.71
2017-09-05T09:00:05.444Z,975.69
2017-09-05T09:01:05.438Z,975.67
2017-09-05T09:02:05.596Z,975.70
2017-09-05T09:03:05.430Z,975.69
2017-09-05T09:04:05.508Z,975.67
2017-09-05T09:05:06.087Z,975.67
2017-09-05T09:06:06.156Z,975.65
2017-09-05T09:07:05.653Z,975.68
2017-09-05T09:08:05.864Z,975.69
2017-09-05T09:09:06.106Z,975.72
2017-09-05T09:10:06.258Z,975.71
2017-09-05T09:11:06.029Z,975.70
2017-09-05T09:12:07.040Z,975.74
2017-09-05T09:13:05.995Z,975.72
2017-09-05T09:14:06.293Z,975.76
2017-09-05T09:15:06.146Z,975.74
2017-09-05T09:16:06.612Z,975.75
2017-09-05T09:17:06.634Z,975.75
2017-09-05T09:18:06.566Z,975.71
2017-09-05T09:19:06.361Z,975.69
2017-09-05T09:20:06.426Z,975.70
2017-09-05T09:21:06.934Z,975.70
2017-09-05T09:22:07.343Z,975.70
2017-09-05T09:23:06.661Z,975.73
2017-09-05T09:24:06.904Z,975.73
2017-09-05T09:25:07.164Z,975.74
2017-09-05T09:26:06.641Z,975.71
2017-09-05T09:27:06.902Z,975.70
2017-09-05T09:28:06.861Z,975.71
2017-09-05T09:29:07.184Z,975.72
2017-09-05T09:30:06.865Z,975.73
2017-09-05T09:31:07.027Z,975.75
2017-09-05T09:32:07.515Z,975.71
2017-09-05T09:33:07.342Z,975.72
2017-09-05T09:34:07.084Z,975.72
2017-09-05T09:35:07.171Z,975.70
2017-09-05T09:36:07.298Z,975.67
2017-09-05T09:37:07.878Z,975.67
2017-09-05T09:38:07.465Z,975.61
2017-09-05T09:39:07.428Z,975.66
2017-09-05T09:40:07.350Z,975.68
2017-09-05T09:41:07.422Z,975.69
2017-09-05T09:42:07.670Z,975.65
2017-09-05T09:43:08.023Z,975.62
2017-09-05T09:44:07.697Z,975.65
2017-09-05T09:45:07.865Z,975.65
2017-09-05T09:46:07.904Z,975.65
2017-09-05T09:47:08.199Z,975.63
2017-09-05T09:48:07.999Z,975.62
2017-09-05T09:49:07.966Z,975.60
2017-09-05T09:50:08.033Z,975.60
2017-09-05T09:51:08.281Z,975.60
2017-09-05T09:52:08.214Z,975.62
2017-09-05T09:53:08.475Z,975.56
2017-09-05T09:54:08.095Z,975.54
2017-09-05T09:55:08.276Z,975.59
2017-09-05T09:56:08.807Z,975.56
2017-09-05T09:57:08.875Z,975.55
2017-09-05T09:58:08.728Z,975.57
2017-09-05T09:59:08.586Z,975.57
2017-09-05T10:00:08.477Z,975.61
2017-09-05T10:01:08.642Z,975.59
2017-09-05T10:02:08.792Z,975.64
2017-09-05T10:03:08.775Z,975.61
2017-09-05T10:04:08.814Z,975.60
2017-09-05T10:05:09.255Z,975.63
2017-09-05T10:06:08.729Z,975.62
2017-09-05T10:07:09.125Z,975.62
2017-09-05T10:08:09.182Z,975.62
2017-09-05T10:09:09.143Z,975.65
2017-09-05T10:10:09.050Z,975.68
2017-09-05T10:11:09.090Z,975.61
2017-09-05T10:12:09.206Z,975.60
2017-09-05T10:13:09.133Z,975.59
2017-09-05T10:14:09.685Z,975.57
2017-09-05T10:15:09.504Z,975.57
2017-09-05T10:16:09.612Z,975.59
2017-09-05T10:17:09.298Z,975.56
2017-09-05T10:18:09.673Z,975.55
2017-09-05T10:19:09.981Z,975.58
2017-09-05T10:20:09.697Z,975.59
2017-09-05T10:21:09.809Z,975.52
2017-09-05T10:22:09.680Z,975.52
2017-09-05T10:23:09.601Z,975.52
2017-09-05T10:24:10.169Z,975.52
2017-09-05T10:25:09.979Z,975.50
2017-09-05T10:26:10.042Z,975.50
2017-09-05T10:27:09.871Z,975.49
2017-09-05T10:28:10.090Z,975.50
2017-09-05T10:29:09.948Z,975.50
2017-09-05T10:30:10.542Z,975.52
2017-09-05T10:31:10.152Z,975.48
2017-09-05T10:32:10.087Z,975.51
2017-09-05T10:33:10.213Z,975.45
2017-09-05T10:34:10.282Z,975.43
2017-09-05T10:35:10.433Z,975.41
2017-09-05T10:36:10.538Z,975.44
2017-09-05T10:37:10.507Z,975.41
2017-09-05T10:38:10.785Z,975.44
2017-09-05T10:39:10.690Z,975.44
2017-09-05T10:40:10.729Z,975.44
2017-09-05T10:41:10.845Z,975.39
2017-09-05T10:42:10.678Z,975.43
2017-09-05T10:43:10.879Z,975.38
2017-09-05T10:44:10.782Z,975.39
2017-09-05T10:45:11.398Z,975.39
2017-09-05T10:46:11.281Z,975.43
2017-09-05T10:47:11.014Z,975.42
2017-09-05T10:48:10.983Z,975.37
2017-09-05T10:49:11.149Z,975.36
2017-09-05T10:50:11.145Z,975.36
2017-09-05T10:51:11.290Z,975.34
2017-09-05T10:52:11.376Z,975.33
2017-09-05T10:53:11.240Z,975.33
2017-09-05T10:54:11.757Z,975.29
2017-09-05T10:55:11.346Z,975.27
2017-09-05T10:56:11.835Z,975.28
2017-09-05T10:57:11.669Z,975.25
2017-09-05T10:58:11.915Z,975.24
2017-09-05T10:59:11.725Z,975.20
2017-09-05T11:00:11.697Z,975.23
2017-09-05T11:01:12.035Z,975.21
2017-09-05T11:02:12.185Z,975.17
2017-09-05T11:03:11.961Z,975.17
2017-09-05T11:04:12.180Z,975.16
2017-09-05T11:05:12.189Z,975.13
2017-09-05T11:06:12.482Z,975.11
2017-09-05T11:07:12.264Z,975.10
2017-09-05T11:08:12.363Z,975.07
2017-09-05T11:09:12.548Z,975.10
2017-09-05T11:10:12.503Z,975.06
2017-09-05T11:11:12.651Z,975.07
2017-09-05T11:12:13.188Z,975.06
2017-09-05T11:13:12.535Z,975.09
2017-09-05T11:14:12.662Z,975.05
2017-09-05T11:15:12.545Z,975.09
2017-09-05T11:16:13.060Z,975.05
2017-09-05T11:17:13.040Z,975.08
2017-09-05T11:18:12.753Z,975.08
2017-09-05T11:19:12.929Z,975.04
2017-09-05T11:20:13.007Z,975.04
2017-09-05T11:21:12.876Z,975.04
2017-09-05T11:22:13.260Z,975.00
2017-09-05T11:23:12.980Z,975.06
2017-09-05T11:24:13.082Z,975.00
2017-09-05T11:25:13.494Z,975.00
2017-09-05T11:26:13.291Z,975.01
2017-09-05T11:27:13.738Z,974.99
2017-09-05T11:28:13.767Z,974.99
2017-09-05T11:29:13.303Z,974.94
2017-09-05T11:30:13.435Z,974.97
2017-09-05T11:31:13.462Z,974.95
2017-09-05T11:32:13.745Z,975.00
2017-09-05T11:33:13.579Z,974.99
2017-09-05T11:34:13.604Z,974.99
2017-09-05T11:35:13.796Z,974.99
2017-09-05T11:36:14.080Z,974.95
2017-09-05T11:37:14.345Z,974.94
2017-09-05T11:38:14.069Z,974.96
2017-09-05T11:39:14.025Z,974.96
2017-09-05T11:40:14.138Z,974.95
2017-09-05T11:41:14.362Z,974.92
2017-09-05T11:42:14.578Z,974.90
2017-09-05T11:43:14.447Z,974.94
2017-09-05T11:44:14.345Z,974.95
2017-09-05T11:45:14.304Z,974.95
2017-09-05T11:46:14.398Z,974.92
2017-09-05T11:47:14.726Z,974.96
2017-09-05T11:48:14.406Z,974.89
2017-09-05T11:49:14.613Z,974.91
2017-09-05T11:50:14.548Z,974.92
2017-09-05T11:51:14.768Z,974.94
2017-09-05T11:52:15.151Z,974.93
2017-09-05T11:53:14.955Z,974.93
2017-09-05T11:54:15.138Z,974.93
2017-09-05T11:55:14.879Z,974.86
2017-09-05T11:56:14.939Z,974.88
2017-09-05T11:57:15.099Z,974.91
2017-09-05T11:58:15.093Z,974.90
2017-09-05T11:59:15.060Z,974.82
2017-09-05T12:00:15.310Z,974.80
2017-09-05T12:01:15.921Z,974.81
2017-09-05T12:02:15.683Z,974.80
2017-09-05T12:03:15.400Z,974.81
2017-09-05T12:04:15.364Z,974.80
2017-09-05T12:05:15.662Z,974.77
2017-09-05T12:06:15.668Z,974.75
2017-09-05T12:07:16.025Z,974.71
2017-09-05T12:08:16.029Z,974.73
2017-09-05T12:09:15.744Z,974.75
2017-09-05T12:10:15.804Z,974.77
2017-09-05T12:11:15.962Z,974.76
2017-09-05T12:12:15.958Z,974.75
2017-09-05T12:13:16.397Z,974.71
2017-09-05T12:14:16.049Z,974.73
2017-09-05T12:15:16.193Z,974.71
2017-09-05T12:16:16.025Z,974.70
2017-09-05T12:17:16.084Z,974.67
2017-09-05T12:18:16.621Z,974.65
2017-09-05T12:19:16.395Z,974.65
2017-09-05T12:20:16.499Z,974.65
2017-09-05T12:21:16.627Z,974.60
2017-09-05T12:22:16.417Z,974.64
2017-09-05T12:23:16.914Z,974.61
2017-09-05T12:24:16.798Z,974.59
2017-09-05T12:25:16.568Z,974.61
2017-09-05T12:26:17.263Z,974.56
2017-09-05T12:27:16.951Z,974.55
2017-09-05T12:28:16.929Z,974.56
2017-09-05T12:29:16.949Z,974.53